createdAt,value
2018-09-17T00:00:19.235Z,19.12
2018-09-17T00:02:47.520Z,19.55
2018-09-17T00:05:16.005Z,19.39
2018-09-17T00:07:45.958Z,19.19
2018-09-17T00:10:14.521Z,19.03
2018-09-17T00:12:42.939Z,19.01
2018-09-17T00:15:11.882Z,18.82
2018-09-17T00:17:40.421Z,19.25
2018-09-17T00:20:08.829Z,18.68
2018-09-17T00:22:37.638Z,18.72
2018-09-17T00:25:05.778Z,18.63
2018-09-17T00:27:34.243Z,18.69
2018-09-17T00:30:02.862Z,19.05
2018-09-17T00:32:31.747Z,18.93
2018-09-17T00:35:01.671Z,18.65
2018-09-17T00:37:30.212Z,18.55
2018-09-17T00:39:58.591Z,18.71
2018-09-17T00:42:26.661Z,18.55
2018-09-17T00:44:55.703Z,18.44
2018-09-17T00:47:24.100Z,18.22
2018-09-17T00:49:53.902Z,18.19
2018-09-17T00:57:57.746Z,18.39
2018-09-17T01:00:27.126Z,18.29
2018-09-17T01:02:55.316Z,18.30
2018-09-17T01:05:23.503Z,18.37
2018-09-17T01:07:52.670Z,18.35
2018-09-17T01:15:18.850Z,18.08
2018-09-17T01:17:47.509Z,18.08
2018-09-17T01:20:16.771Z,18.23
2018-09-17T01:22:45.112Z,18.49
2018-09-17T01:25:14.192Z,18.31
2018-09-17T01:27:42.315Z,18.05
2018-09-17T01:30:10.866Z,17.66
2018-09-17T01:32:39.095Z,17.85
2018-09-17T01:35:07.207Z,18.18
2018-09-17T01:37:35.942Z,18.03
2018-09-17T01:40:04.308Z,17.73
2018-09-17T01:42:32.659Z,18.04
2018-09-17T01:45:01.835Z,17.77
2018-09-17T01:47:31.309Z,17.77
2018-09-17T01:49:59.663Z,17.85
2018-09-17T01:52:27.766Z,17.85
2018-09-17T01:55:00.585Z,18.21
2018-09-17T01:57:28.714Z,18.07
2018-09-17T01:59:58.679Z,18.20
2018-09-17T02:02:27.249Z,18.01
2018-09-17T02:04:55.689Z,18.18
2018-09-17T02:07:28.536Z,17.72
2018-09-17T02:09:56.793Z,17.56
2018-09-17T02:12:25.732Z,17.35
2018-09-17T02:14:53.990Z,17.63
2018-09-17T02:17:24.291Z,17.45
2018-09-17T02:19:54.486Z,17.38
2018-09-17T02:22:22.827Z,17.41
2018-09-17T02:24:53.206Z,17.17
2018-09-17T02:27:25.323Z,17.06
2018-09-17T02:29:54.220Z,17.01
2018-09-17T02:32:24.613Z,17.20
2018-09-17T02:34:52.689Z,17.03
2018-09-17T02:37:23.119Z,17.06
2018-09-17T02:39:54.010Z,17.05
2018-09-17T02:42:23.179Z,17.22
2018-09-17T02:44:51.839Z,16.92
2018-09-17T02:47:20.491Z,17.08
2018-09-17T02:49:49.193Z,16.85
2018-09-17T02:52:17.345Z,16.94
2018-09-17T02:54:45.554Z,16.93
2018-09-17T02:57:13.699Z,16.88
2018-09-17T02:59:41.954Z,16.98
2018-09-17T03:02:10.066Z,16.95
2018-09-17T03:04:38.151Z,16.78
2018-09-17T03:07:06.284Z,16.90
2018-09-17T03:09:34.462Z,16.98
2018-09-17T03:12:04.046Z,16.87
2018-09-17T03:14:32.214Z,16.70
2018-09-17T03:17:09.523Z,16.74
2018-09-17T03:19:37.611Z,16.59
2018-09-17T03:22:07.331Z,16.62
2018-09-17T03:24:37.052Z,16.81
2018-09-17T03:27:08.753Z,16.95
2018-09-17T03:29:37.025Z,16.76
2018-09-17T03:32:06.632Z,16.71
2018-09-17T03:34:34.675Z,17.16
2018-09-17T03:37:02.734Z,16.72
2018-09-17T03:39:30.845Z,16.54
2018-09-17T03:41:59.459Z,16.50
2018-09-17T03:44:27.693Z,16.33
2018-09-17T03:46:55.759Z,16.58
2018-09-17T03:49:24.416Z,16.67
2018-09-17T03:51:52.700Z,16.66
2018-09-17T03:54:20.782Z,16.51
2018-09-17T03:56:48.974Z,16.58
2018-09-17T03:59:18.536Z,16.53
2018-09-17T04:01:48.166Z,16.53
2018-09-17T04:04:17.819Z,16.23
2018-09-17T04:06:45.897Z,16.13
2018-09-17T04:09:18.546Z,16.49
2018-09-17T04:11:46.651Z,16.27
2018-09-17T04:14:14.731Z,16.36
2018-09-17T04:16:44.829Z,16.30
2018-09-17T04:19:12.994Z,16.53
2018-09-17T04:21:41.455Z,16.29
2018-09-17T04:24:09.545Z,16.46
2018-09-17T04:26:43.013Z,16.01
2018-09-17T04:29:11.657Z,15.82
2018-09-17T04:31:40.402Z,15.74
2018-09-17T04:34:08.458Z,15.82
2018-09-17T04:36:38.055Z,16.03
2018-09-17T04:39:08.423Z,16.26
2018-09-17T04:41:37.012Z,16.39
2018-09-17T04:44:06.187Z,16.07
2018-09-17T04:46:35.851Z,15.67
2018-09-17T04:49:04.015Z,15.86
2018-09-17T04:51:32.117Z,16.00
2018-09-17T04:54:00.244Z,16.16
2018-09-17T04:56:28.341Z,15.76
2018-09-17T04:58:56.439Z,15.85
2018-09-17T05:01:24.780Z,15.68
2018-09-17T05:03:53.952Z,15.69
2018-09-17T05:06:22.604Z,16.01
2018-09-17T05:08:51.297Z,15.87
2018-09-17T05:11:20.370Z,15.80
2018-09-17T05:13:49.019Z,16.11
2018-09-17T05:16:17.146Z,16.09
2018-09-17T05:18:46.512Z,16.42
2018-09-17T05:21:15.611Z,16.54
2018-09-17T05:23:44.519Z,16.34
2018-09-17T05:26:13.687Z,16.26
2018-09-17T05:28:43.371Z,15.98
2018-09-17T05:31:11.470Z,16.03
2018-09-17T05:33:39.613Z,16.22
2018-09-17T05:36:08.407Z,16.32
2018-09-17T05:38:36.513Z,16.32
2018-09-17T05:41:04.666Z,16.15
2018-09-17T05:43:34.495Z,16.15
2018-09-17T05:46:02.843Z,15.99
2018-09-17T05:48:32.379Z,16.43
2018-09-17T05:51:01.015Z,16.56
2018-09-17T05:53:30.260Z,16.54
2018-09-17T05:55:58.376Z,16.45
2018-09-17T05:58:27.142Z,16.60
2018-09-17T06:00:55.268Z,16.63
2018-09-17T06:03:23.391Z,16.31
2018-09-17T06:05:52.998Z,16.51
2018-09-17T06:08:22.912Z,16.11
2018-09-17T06:10:52.930Z,16.09
2018-09-17T06:13:21.179Z,15.87
2018-09-17T06:15:49.328Z,16.38
2018-09-17T06:18:19.051Z,16.49
2018-09-17T06:20:47.151Z,16.84
2018-09-17T06:23:16.026Z,16.83
2018-09-17T06:25:45.417Z,16.97
2018-09-17T06:28:13.533Z,16.77
2018-09-17T06:30:41.679Z,16.91
2018-09-17T06:33:11.562Z,17.00
2018-09-17T06:35:39.881Z,16.90
2018-09-17T06:38:08.194Z,16.89
2018-09-17T06:40:37.053Z,17.03
2018-09-17T06:43:06.043Z,17.06
2018-09-17T06:45:35.257Z,17.26
2018-09-17T06:48:04.966Z,17.33
2018-09-17T06:50:36.398Z,17.30
2018-09-17T06:53:05.906Z,17.00
2018-09-17T06:55:40.540Z,16.96
2018-09-17T06:58:11.330Z,17.17
2018-09-17T07:00:39.592Z,17.24
2018-09-17T07:03:07.922Z,17.68
2018-09-17T07:05:37.619Z,17.75
2018-09-17T07:08:05.755Z,17.70
2018-09-17T07:10:34.151Z,17.86
2018-09-17T07:13:02.614Z,18.00
2018-09-17T07:15:30.731Z,18.06
2018-09-17T07:18:00.529Z,17.83
2018-09-17T07:20:28.937Z,17.88
2018-09-17T07:22:58.771Z,17.73
2018-09-17T07:25:26.839Z,17.80
2018-09-17T07:27:55.700Z,17.94
2018-09-17T07:35:24.339Z,18.34
2018-09-17T07:37:54.023Z,18.24
2018-09-17T07:40:22.759Z,18.52
2018-09-17T07:42:51.733Z,18.48
2018-09-17T07:45:21.035Z,18.57
2018-09-17T07:47:49.476Z,18.45
2018-09-17T07:50:17.587Z,18.60
2018-09-17T07:52:46.980Z,18.42
2018-09-17T07:55:25.142Z,18.48
2018-09-17T07:58:03.484Z,18.53
2018-09-17T08:00:33.426Z,18.62
2018-09-17T08:03:01.539Z,18.64
2018-09-17T08:05:29.630Z,18.87
2018-09-17T08:07:57.706Z,18.82
2018-09-17T08:10:26.629Z,19.13
2018-09-17T08:12:54.863Z,19.18
2018-09-17T08:15:25.279Z,19.33
2018-09-17T08:17:53.690Z,19.37
2018-09-17T08:20:22.566Z,19.38
2018-09-17T08:22:50.872Z,19.61
2018-09-17T08:25:19.395Z,19.75
2018-09-17T08:27:47.755Z,19.85
2018-09-17T08:30:15.974Z,19.98
2018-09-17T08:32:44.456Z,20.16
2018-09-17T08:35:13.966Z,20.36
2018-09-17T08:37:42.289Z,20.20
2018-09-17T08:40:28.348Z,20.31
2018-09-17T08:43:20.224Z,20.53
2018-09-17T08:45:48.451Z,20.52
2018-09-17T08:48:16.802Z,20.45
2018-09-17T08:50:45.275Z,20.37
2018-09-17T08:53:13.887Z,20.49
2018-09-17T08:55:44.779Z,20.60
2018-09-17T08:58:18.433Z,20.78
2018-09-17T09:00:52.871Z,20.64
2018-09-17T09:03:27.851Z,20.87
2018-09-17T09:06:01.858Z,20.99
2018-09-17T09:08:31.891Z,21.05
2018-09-17T09:11:06.349Z,21.17
2018-09-17T09:13:39.301Z,21.33
2018-09-17T09:16:11.192Z,21.51
2018-09-17T09:18:41.772Z,21.55
2018-09-17T09:21:12.101Z,21.62
2018-09-17T09:23:41.527Z,21.60
2018-09-17T09:26:13.856Z,21.65
2018-09-17T09:28:42.450Z,21.70
2018-09-17T09:31:11.682Z,21.84
2018-09-17T09:33:41.699Z,21.91
2018-09-17T09:36:10.117Z,22.13
2018-09-17T09:38:40.229Z,22.16
2018-09-17T09:41:10.317Z,22.13
2018-09-17T09:43:41.110Z,22.15
2018-09-17T09:46:11.001Z,22.27
2018-09-17T09:48:40.254Z,22.22
2018-09-17T09:51:08.526Z,22.38
2018-09-17T09:53:36.856Z,22.66
2018-09-17T09:56:05.454Z,22.63
2018-09-17T09:58:34.351Z,22.66
2018-09-17T10:01:08.261Z,22.95
2018-09-17T10:03:44.813Z,23.09
2018-09-17T10:06:16.391Z,23.10
2018-09-17T10:08:50.191Z,23.25
2018-09-17T10:11:24.337Z,23.38
2018-09-17T10:13:58.015Z,23.60
2018-09-17T10:16:26.139Z,23.60
2018-09-17T10:18:59.503Z,23.63
2018-09-17T10:21:29.241Z,23.85
2018-09-17T10:23:57.502Z,24.23
2018-09-17T10:26:25.650Z,24.33
2018-09-17T10:28:54.271Z,24.39
2018-09-17T10:31:22.372Z,24.69
2018-09-17T10:33:50.614Z,24.72
2018-09-17T10:36:19.351Z,24.81
2018-09-17T10:38:47.543Z,24.99
2018-09-17T10:41:16.299Z,24.98
2018-09-17T10:43:44.601Z,25.15
2018-09-17T10:46:13.164Z,25.21
2018-09-17T10:48:43.005Z,25.21
2018-09-17T10:51:11.175Z,25.54
2018-09-17T10:53:39.309Z,25.53
2018-09-17T10:56:08.810Z,25.58
2018-09-17T10:58:36.922Z,25.91
2018-09-17T11:01:06.580Z,25.89
2018-09-17T11:03:34.791Z,25.80
2018-09-17T11:06:03.012Z,26.18
2018-09-17T11:08:33.159Z,26.51
2018-09-17T11:11:01.307Z,27.00
2018-09-17T11:13:30.517Z,27.28
2018-09-17T11:15:58.678Z,27.49
2018-09-17T11:18:26.767Z,27.83
2018-09-17T11:20:54.866Z,28.23
2018-09-17T11:23:23.356Z,28.25
2018-09-17T11:25:51.762Z,28.20
2018-09-17T11:28:21.369Z,28.42
2018-09-17T11:30:49.634Z,29.49
2018-09-17T11:33:17.732Z,29.46
2018-09-17T11:35:45.836Z,29.37
2018-09-17T11:38:13.947Z,29.64
2018-09-17T11:40:42.160Z,30.09
2018-09-17T11:43:10.311Z,30.36
2018-09-17T11:45:38.523Z,31.13
2018-09-17T11:48:06.618Z,31.51
2018-09-17T11:50:49.277Z,31.56
2018-09-17T11:53:17.380Z,31.73
2018-09-17T11:55:45.659Z,33.14
2018-09-17T11:58:14.961Z,32.05
2018-09-17T12:00:49.641Z,32.48
2018-09-17T12:03:23.490Z,33.41
2018-09-17T12:05:57.108Z,33.58
2018-09-17T12:08:25.316Z,34.93
2018-09-17T12:10:53.767Z,33.75
2018-09-17T12:13:23.332Z,35.37
2018-09-17T12:15:53.854Z,35.77
2018-09-17T12:18:22.944Z,36.30
2018-09-17T12:20:53.051Z,36.79
2018-09-17T12:23:22.327Z,38.00
2018-09-17T12:25:51.785Z,36.31
2018-09-17T12:28:20.363Z,38.49
2018-09-17T12:30:49.109Z,37.91
2018-09-17T12:33:21.365Z,38.97
2018-09-17T12:35:49.845Z,39.34
2018-09-17T12:38:18.137Z,37.26
2018-09-17T12:40:46.565Z,38.59
2018-09-17T12:43:15.646Z,40.25
2018-09-17T12:45:47.539Z,41.36
2018-09-17T12:48:16.124Z,41.59
2018-09-17T12:50:45.285Z,42.81
2018-09-17T12:53:15.004Z,43.20
2018-09-17T12:55:48.270Z,43.10
2018-09-17T12:58:17.251Z,42.16
2018-09-17T13:00:45.718Z,42.82
2018-09-17T13:05:36.596Z,43.10
2018-09-17T13:08:05.230Z,44.28
2018-09-17T13:10:33.397Z,44.52
2018-09-17T13:13:02.043Z,43.17
2018-09-17T13:15:30.511Z,42.96
2018-09-17T13:17:59.068Z,43.52
2018-09-17T13:20:27.508Z,45.12
2018-09-17T13:22:56.140Z,44.49
2018-09-17T13:25:25.083Z,45.36
2018-09-17T13:27:53.256Z,44.50
2018-09-17T13:30:21.534Z,44.27
2018-09-17T13:32:49.741Z,47.47
2018-09-17T13:35:18.132Z,48.64
2018-09-17T13:37:46.324Z,47.45
2018-09-17T13:40:14.661Z,48.68
2018-09-17T13:42:43.078Z,48.49
2018-09-17T13:45:11.465Z,49.90
2018-09-17T13:47:43.464Z,47.54
2018-09-17T13:50:11.750Z,45.92
2018-09-17T13:52:40.066Z,45.26
2018-09-17T13:55:08.345Z,46.76
2018-09-17T13:57:36.736Z,47.15
2018-09-17T14:00:05.043Z,46.99
2018-09-17T14:02:33.491Z,46.13
2018-09-17T14:05:02.009Z,46.43
2018-09-17T14:07:30.699Z,42.66
2018-09-17T14:09:58.895Z,46.64
2018-09-17T14:12:27.371Z,46.20
2018-09-17T14:14:56.645Z,46.61
2018-09-17T14:17:25.481Z,48.08
2018-09-17T14:19:54.759Z,43.37
2018-09-17T14:22:23.846Z,44.24
2018-09-17T14:24:52.391Z,43.68
2018-09-17T14:27:20.559Z,44.95
2018-09-17T14:29:48.943Z,45.03
2018-09-17T14:32:23.264Z,45.75
2018-09-17T14:34:52.139Z,45.18
2018-09-17T14:37:20.574Z,46.32
2018-09-17T14:39:49.432Z,47.29
2018-09-17T14:42:17.886Z,48.27
2018-09-17T14:44:46.770Z,48.22
2018-09-17T14:47:16.083Z,49.76
2018-09-17T14:49:44.745Z,49.12
2018-09-17T14:52:12.896Z,48.00
2018-09-17T14:54:40.970Z,47.65
2018-09-17T14:57:09.341Z,48.60
2018-09-17T14:59:37.698Z,48.53
2018-09-17T15:02:05.928Z,48.83
2018-09-17T15:04:34.083Z,48.16
2018-09-17T15:07:02.356Z,47.22
2018-09-17T15:09:31.030Z,46.68
2018-09-17T15:11:59.295Z,48.20
2018-09-17T15:14:28.020Z,47.49
2018-09-17T15:16:56.058Z,47.82
2018-09-17T15:19:24.308Z,48.54
2018-09-17T15:21:52.736Z,48.71
2018-09-17T15:24:20.897Z,47.92
2018-09-17T15:26:49.094Z,43.42
2018-09-17T15:29:17.895Z,45.14
2018-09-17T15:31:46.003Z,43.43
2018-09-17T15:34:14.156Z,45.97
2018-09-17T15:36:42.442Z,45.22
2018-09-17T15:39:13.189Z,43.97
2018-09-17T15:41:41.990Z,42.75
2018-09-17T15:44:10.997Z,41.71
2018-09-17T15:46:39.176Z,42.17
2018-09-17T15:49:07.537Z,44.12
2018-09-17T15:51:35.751Z,43.57
2018-09-17T15:54:03.943Z,43.21
2018-09-17T15:56:32.169Z,42.08
2018-09-17T15:59:00.339Z,41.83
2018-09-17T16:01:28.656Z,40.97
2018-09-17T16:03:57.228Z,39.69
2018-09-17T16:06:26.991Z,39.77
2018-09-17T16:08:55.899Z,38.83
2018-09-17T16:11:24.207Z,38.30
2018-09-17T16:13:52.441Z,37.33
2018-09-17T16:16:21.184Z,36.79
2018-09-17T16:18:49.576Z,36.78
2018-09-17T16:21:18.472Z,36.29
2018-09-17T16:23:46.618Z,35.97
2018-09-17T16:26:15.271Z,35.50
2018-09-17T16:28:44.266Z,35.41
2018-09-17T16:31:13.492Z,34.41
2018-09-17T16:33:41.564Z,34.14
2018-09-17T16:36:09.733Z,33.94
2018-09-17T16:38:37.844Z,33.59
2018-09-17T16:41:06.602Z,33.49
2018-09-17T16:43:35.289Z,33.49
2018-09-17T16:46:04.593Z,33.05
2018-09-17T16:48:32.898Z,32.89
2018-09-17T16:51:01.072Z,32.67
2018-09-17T16:53:29.420Z,32.69
2018-09-17T16:55:58.749Z,32.51
2018-09-17T16:58:26.981Z,31.78
2018-09-17T17:05:56.166Z,31.92
2018-09-17T17:08:24.289Z,31.41
2018-09-17T17:10:52.560Z,31.19
2018-09-17T17:13:22.727Z,31.18
2018-09-17T17:15:50.922Z,30.95
2018-09-17T17:18:21.283Z,31.03
2018-09-17T17:20:49.469Z,30.71
2018-09-17T17:23:17.646Z,30.47
2018-09-17T17:25:45.897Z,30.33
2018-09-17T17:28:14.166Z,30.18
2018-09-17T17:30:42.397Z,30.06
2018-09-17T17:33:14.776Z,29.99
2018-09-17T17:35:43.247Z,29.74
2018-09-17T17:38:11.370Z,29.60
2018-09-17T17:40:39.895Z,29.64
2018-09-17T17:43:07.749Z,29.69
2018-09-17T17:45:35.886Z,29.48
2018-09-17T17:48:04.084Z,29.27
2018-09-17T17:50:32.261Z,29.09
2018-09-17T17:53:00.415Z,28.90
2018-09-17T17:55:28.678Z,28.83
2018-09-17T17:57:58.054Z,28.54
2018-09-17T18:00:26.500Z,28.43
2018-09-17T18:02:54.632Z,28.56
2018-09-17T18:05:23.032Z,28.52
2018-09-17T18:07:51.310Z,28.38
2018-09-17T18:10:19.588Z,28.36
2018-09-17T18:12:47.963Z,28.08
2018-09-17T18:15:16.195Z,27.98
2018-09-17T18:17:44.295Z,27.89
2018-09-17T18:20:12.475Z,27.67
2018-09-17T18:22:40.713Z,27.71
2018-09-17T18:25:09.250Z,27.61
2018-09-17T18:27:37.435Z,27.44
2018-09-17T18:30:07.235Z,27.28
2018-09-17T18:32:35.293Z,27.25
2018-09-17T18:35:04.799Z,27.13
2018-09-17T18:37:32.881Z,27.11
2018-09-17T18:40:01.159Z,26.96
2018-09-17T18:42:29.627Z,26.89
2018-09-17T18:44:58.239Z,26.98
2018-09-17T18:47:26.487Z,26.88
2018-09-17T18:49:55.845Z,26.75
2018-09-17T18:52:23.994Z,26.71
2018-09-17T18:54:53.599Z,26.56
2018-09-17T18:57:22.237Z,26.47
2018-09-17T18:59:50.482Z,26.37
2018-09-17T19:02:18.818Z,26.27
2018-09-17T19:04:47.035Z,26.16
2018-09-17T19:07:16.167Z,26.02
2018-09-17T19:09:47.231Z,26.03
2018-09-17T19:12:16.427Z,25.94
2018-09-17T19:14:50.738Z,25.88
2018-09-17T19:17:24.058Z,25.87
2018-09-17T19:19:53.822Z,25.99
2018-09-17T19:22:27.377Z,25.93
2018-09-17T19:24:57.202Z,25.82
2018-09-17T19:27:30.606Z,25.89
2018-09-17T19:29:59.508Z,25.70
2018-09-17T19:32:27.865Z,25.75
2018-09-17T19:34:56.623Z,25.58
2018-09-17T19:37:31.138Z,25.58
2018-09-17T19:40:04.707Z,25.40
2018-09-17T19:42:33.056Z,25.36
2018-09-17T19:45:07.014Z,25.50
2018-09-17T19:47:35.431Z,25.38
2018-09-17T19:50:07.847Z,25.18
2018-09-17T19:52:35.941Z,25.15
2018-09-17T19:55:04.130Z,25.04
2018-09-17T19:57:37.625Z,25.09
2018-09-17T20:00:07.003Z,25.16
2018-09-17T20:02:35.288Z,25.13
2018-09-17T20:05:08.814Z,24.96
2018-09-17T20:07:37.148Z,24.93
2018-09-17T20:10:05.666Z,24.85
2018-09-17T20:12:33.888Z,24.73
2018-09-17T20:15:02.185Z,24.82
2018-09-17T20:17:30.270Z,24.62
2018-09-17T20:19:58.387Z,24.46
2018-09-17T20:22:26.959Z,24.48
2018-09-17T20:24:55.409Z,24.18
2018-09-17T20:27:23.558Z,24.31
2018-09-17T20:29:52.098Z,23.92
2018-09-17T20:32:20.361Z,23.97
2018-09-17T20:34:48.517Z,24.27
2018-09-17T20:37:16.774Z,24.19
2018-09-17T20:39:45.228Z,24.02
2018-09-17T20:42:13.379Z,24.08
2018-09-17T20:44:41.752Z,24.12
2018-09-17T20:47:09.962Z,24.23
2018-09-17T20:49:38.123Z,24.05
2018-09-17T20:52:06.278Z,24.06
2018-09-17T20:54:34.831Z,23.82
2018-09-17T20:57:03.939Z,23.87
2018-09-17T20:59:32.095Z,23.84
2018-09-17T21:02:00.193Z,23.82
2018-09-17T21:04:29.460Z,23.69
2018-09-17T21:06:57.699Z,23.63
2018-09-17T21:09:25.796Z,23.62
2018-09-17T21:11:53.919Z,23.57
2018-09-17T21:14:22.238Z,23.62
2018-09-17T21:16:50.608Z,23.67
2018-09-17T21:19:18.804Z,23.55
2018-09-17T21:21:46.834Z,23.62
2018-09-17T21:24:14.927Z,23.41
2018-09-17T21:26:43.089Z,23.52
2018-09-17T21:29:11.237Z,23.27
2018-09-17T21:31:39.627Z,23.25
2018-09-17T21:34:07.764Z,23.22
2018-09-17T21:36:35.891Z,23.31
2018-09-17T21:39:06.465Z,23.20
2018-09-17T21:41:34.651Z,23.32
2018-09-17T21:44:02.978Z,23.24
2018-09-17T21:46:31.186Z,23.10
2018-09-17T21:49:00.539Z,23.17
2018-09-17T21:51:28.742Z,23.06
2018-09-17T21:53:57.178Z,23.03
2018-09-17T21:56:25.423Z,23.02
2018-09-17T21:58:53.628Z,22.94
2018-09-17T22:01:21.823Z,22.89
2018-09-17T22:03:50.792Z,22.75
2018-09-17T22:06:18.906Z,22.86
2018-09-17T22:08:47.046Z,22.94
2018-09-17T22:11:15.193Z,22.81
2018-09-17T22:13:50.831Z,22.48
2018-09-17T22:16:19.146Z,22.78
2018-09-17T22:18:47.429Z,22.73
2018-09-17T22:21:15.648Z,22.59
2018-09-17T22:23:43.776Z,22.50
2018-09-17T22:26:11.922Z,22.53
2018-09-17T22:28:40.018Z,22.63
2018-09-17T22:31:08.178Z,22.44
2018-09-17T22:33:36.437Z,22.33
2018-09-17T22:36:04.646Z,22.46
2018-09-17T22:38:32.930Z,22.56
2018-09-17T22:41:01.231Z,22.45
2018-09-17T22:43:29.517Z,22.39
2018-09-17T22:45:57.691Z,22.31
2018-09-17T22:48:25.968Z,22.08
2018-09-17T22:50:55.707Z,21.97
2018-09-17T22:53:23.878Z,21.99
2018-09-17T22:55:52.000Z,22.14
2018-09-17T22:58:20.392Z,22.14
2018-09-17T23:00:49.744Z,22.06
2018-09-17T23:03:17.863Z,22.03
2018-09-17T23:05:45.912Z,21.88
2018-09-17T23:08:14.020Z,21.82
2018-09-17T23:10:42.738Z,21.92
2018-09-17T23:13:10.871Z,21.79
2018-09-17T23:15:39.490Z,21.62
2018-09-17T23:18:07.611Z,21.72
2018-09-17T23:20:37.116Z,21.62
2018-09-17T23:23:05.363Z,21.58
2018-09-17T23:25:34.205Z,21.47
2018-09-17T23:28:02.284Z,21.53
2018-09-17T23:30:30.362Z,21.41
2018-09-17T23:32:58.743Z,21.28
2018-09-17T23:40:26.222Z,21.17
2018-09-17T23:42:54.443Z,21.09
2018-09-17T23:45:22.619Z,21.21
2018-09-17T23:47:50.782Z,21.09
2018-09-17T23:50:19.092Z,21.15
2018-09-17T23:52:48.954Z,21.14
2018-09-17T23:55:17.171Z,21.02
2018-09-17T23:57:45.535Z,20.85
